Terminal Aerodrome Forecast
Issued by NWS

Home | Current Version | Previous Version | Text Only | Print | Product List | Glossary On
Versions: 1 2 3 4 5 6 7 8 9 10 11
109
FTUS42 TJSJ 231139 RRA
TAFJBQ
TAF
TJBQ 231139Z 2312/2412 10005KT P6SM -RA FEW025 BKN060 BKN090
     FM231430 08012KT P6SM SCT030 SCT060 SCT090
     FM231700 07014G20KT P6SM VCTS FEW025CB BKN040 BKN080
     FM232230 11005KT P6SM -RA SCT030 SCT050 BKN100
      AMD NOT SKED=

USA.gov is the U.S. government's official web portal to all federal, state and local government web resources and services.